sensor_id;sensor_type;location;lat;lon;timestamp;pressure;altitude;pressure_sealevel;temperature;humidity
26719;BME280;14326;50.794;6.060;2023-03-26T00:02:08;98851.84;;;9.26;89.21
26719;BME280;14326;50.794;6.060;2023-03-26T00:04:37;98850.09;;;9.24;89.15
26719;BME280;14326;50.794;6.060;2023-03-26T00:07:07;98868.66;;;9.21;89.78
26719;BME280;14326;50.794;6.060;2023-03-26T00:09:35;98863.38;;;9.24;90.08
26719;BME280;14326;50.794;6.060;2023-03-26T00:12:03;98860.69;;;9.21;90.52
26719;BME280;14326;50.794;6.060;2023-03-26T00:14:31;98858.03;;;9.16;90.48
26719;BME280;14326;50.794;6.060;2023-03-26T00:16:59;98851.84;;;9.13;90.48
26719;BME280;14326;50.794;6.060;2023-03-26T00:19:27;98858.03;;;9.07;91.29
26719;BME280;14326;50.794;6.060;2023-03-26T00:21:56;98855.34;;;9.06;91.59
26719;BME280;14326;50.794;6.060;2023-03-26T00:24:23;98856.22;;;9.01;91.20
26719;BME280;14326;50.794;6.060;2023-03-26T00:26:54;98850.91;;;9.01;91.59
26719;BME280;14326;50.794;6.060;2023-03-26T00:29:21;98854.44;;;8.93;91.96
26719;BME280;14326;50.794;6.060;2023-03-26T00:31:49;98848.22;;;8.86;92.52
26719;BME280;14326;50.794;6.060;2023-03-26T00:34:16;98850.88;;;8.91;92.01
26719;BME280;14326;50.794;6.060;2023-03-26T00:36:43;98847.34;;;8.90;91.55
26719;BME280;14326;50.794;6.060;2023-03-26T00:39:12;98839.41;;;8.96;91.32
26719;BME280;14326;50.794;6.060;2023-03-26T00:41:39;98839.44;;;9.01;91.37
26719;BME280;14326;50.794;6.060;2023-03-26T00:44:10;98829.69;;;9.03;91.30
26719;BME280;14326;50.794;6.060;2023-03-26T00:46:36;98832.34;;;9.01;91.65
26719;BME280;14326;50.794;6.060;2023-03-26T00:49:03;98837.66;;;9.04;91.74
26719;BME280;14326;50.794;6.060;2023-03-26T00:51:35;98827.94;;;9.08;90.97
26719;BME280;14326;50.794;6.060;2023-03-26T00:54:03;98822.63;;;9.08;90.98
26719;BME280;14326;50.794;6.060;2023-03-26T00:56:33;98826.19;;;9.10;90.96
26719;BME280;14326;50.794;6.060;2023-03-26T00:59:00;98816.47;;;9.06;91.10
26719;BME280;14326;50.794;6.060;2023-03-26T01:01:27;98814.69;;;9.00;91.01
26719;BME280;14326;50.794;6.060;2023-03-26T01:03:56;98812.00;;;8.99;90.97
26719;BME280;14326;50.794;6.060;2023-03-26T01:06:26;98810.25;;;8.99;90.81
26719;BME280;14326;50.794;6.060;2023-03-26T01:08:58;98809.38;;;9.05;90.53
26719;BME280;14326;50.794;6.060;2023-03-26T01:11:31;98797.88;;;9.06;90.25
26719;BME280;14326;50.794;6.060;2023-03-26T01:14:04;98794.31;;;9.02;90.37
26719;BME280;14326;50.794;6.060;2023-03-26T01:16:36;98796.13;;;9.07;90.27
26719;BME280;14326;50.794;6.060;2023-03-26T01:19:12;98793.44;;;9.03;90.37
26719;BME280;14326;50.794;6.060;2023-03-26T01:21:40;98795.22;;;9.09;90.34
26719;BME280;14326;50.794;6.060;2023-03-26T01:24:09;98800.53;;;9.06;91.04
26719;BME280;14326;50.794;6.060;2023-03-26T01:26:52;98786.41;;;9.07;90.53
26719;BME280;14326;50.794;6.060;2023-03-26T01:29:24;98785.50;;;9.07;90.61
26719;BME280;14326;50.794;6.060;2023-03-26T01:32:10;98779.31;;;9.04;90.84
26719;BME280;14326;50.794;6.060;2023-03-26T01:34:49;98774.88;;;9.08;90.33
26719;BME280;14326;50.794;6.060;2023-03-26T01:37:22;98768.69;;;9.08;91.02
26719;BME280;14326;50.794;6.060;2023-03-26T01:39:55;98769.59;;;9.07;90.74
26719;BME280;14326;50.794;6.060;2023-03-26T01:42:36;98767.81;;;9.04;90.73
26719;BME280;14326;50.794;6.060;2023-03-26T01:45:09;98766.06;;;9.06;91.21
26719;BME280;14326;50.794;6.060;2023-03-26T01:47:38;98759.00;;;9.13;90.33
26719;BME280;14326;50.794;6.060;2023-03-26T01:50:09;98756.34;;;9.13;90.48
26719;BME280;14326;50.794;6.060;2023-03-26T01:52:36;98758.09;;;9.17;90.21
26719;BME280;14326;50.794;6.060;2023-03-26T01:55:07;98759.00;;;9.13;91.67
26719;BME280;14326;50.794;6.060;2023-03-26T01:57:41;98749.28;;;9.07;91.72
26719;BME280;14326;50.794;6.060;2023-03-26T02:00:17;98743.03;;;9.02;92.78
26719;BME280;14326;50.794;6.060;2023-03-26T02:03:00;98742.16;;;9.01;92.69
26719;BME280;14326;50.794;6.060;2023-03-26T02:05:33;98735.09;;;8.97;92.95
26719;BME280;14326;50.794;6.060;2023-03-26T02:08:06;98724.47;;;8.97;93.54
26719;BME280;14326;50.794;6.060;2023-03-26T02:10:40;98719.19;;;8.94;93.21
26719;BME280;14326;50.794;6.060;2023-03-26T02:13:09;98721.84;;;8.93;93.80
26719;BME280;14326;50.794;6.060;2023-03-26T02:15:36;98720.06;;;8.92;93.96
26719;BME280;14326;50.794;6.060;2023-03-26T02:18:04;98710.34;;;8.92;94.09
26719;BME280;14326;50.794;6.060;2023-03-26T02:20:35;98718.28;;;8.92;94.31
26719;BME280;14326;50.794;6.060;2023-03-26T02:23:02;98709.44;;;8.90;94.61
26719;BME280;14326;50.794;6.060;2023-03-26T02:25:29;98701.50;;;8.87;94.46
26719;BME280;14326;50.794;6.060;2023-03-26T02:27:57;98696.19;;;8.86;95.35
26719;BME280;14326;50.794;6.060;2023-03-26T02:30:24;98694.44;;;8.83;96.28
26719;BME280;14326;50.794;6.060;2023-03-26T02:32:54;98690.88;;;8.80;96.31
26719;BME280;14326;50.794;6.060;2023-03-26T02:35:23;98680.28;;;8.80;96.78
26719;BME280;14326;50.794;6.060;2023-03-26T02:37:50;98677.59;;;8.78;97.18
26719;BME280;14326;50.794;6.060;2023-03-26T02:40:17;98674.97;;;8.77;97.65
26719;BME280;14326;50.794;6.060;2023-03-26T02:42:47;98672.31;;;8.75;97.40
26719;BME280;14326;50.794;6.060;2023-03-26T02:45:15;98666.13;;;8.73;98.22
26719;BME280;14326;50.794;6.060;2023-03-26T02:47:42;98671.44;;;8.73;98.45
26719;BME280;14326;50.794;6.060;2023-03-26T02:50:12;98660.84;;;8.72;98.55
26719;BME280;14326;50.794;6.060;2023-03-26T02:52:39;98657.31;;;8.71;99.12
26719;BME280;14326;50.794;6.060;2023-03-26T02:55:07;98647.56;;;8.70;99.22
26719;BME280;14326;50.794;6.060;2023-03-26T02:57:34;98634.31;;;8.70;99.57
26719;BME280;14326;50.794;6.060;2023-03-26T03:00:05;98632.53;;;8.72;100.00
26719;BME280;14326;50.794;6.060;2023-03-26T03:02:39;98635.19;;;8.72;100.00
26719;BME280;14326;50.794;6.060;2023-03-26T03:05:06;98621.94;;;8.69;100.00
26719;BME280;14326;50.794;6.060;2023-03-26T03:07:33;98613.09;;;8.67;100.00
26719;BME280;14326;50.794;6.060;2023-03-26T03:10:04;98610.44;;;8.67;100.00
26719;BME280;14326;50.794;6.060;2023-03-26T03:12:33;98606.06;;;8.65;100.00
26719;BME280;14326;50.794;6.060;2023-03-26T03:14:59;98604.28;;;8.62;100.00
26719;BME280;14326;50.794;6.060;2023-03-26T03:17:26;98605.16;;;8.59;100.00
26719;BME280;14326;50.794;6.060;2023-03-26T03:19:54;98597.22;;;8.64;100.00
26719;BME280;14326;50.794;6.060;2023-03-26T03:22:21;98604.28;;;8.62;100.00
26719;BME280;14326;50.794;6.060;2023-03-26T03:24:47;98593.66;;;8.62;100.00
26719;BME280;14326;50.794;6.060;2023-03-26T03:27:16;98587.47;;;8.63;100.00
26719;BME280;14326;50.794;6.060;2023-03-26T03:29:43;98588.38;;;8.62;100.00
26719;BME280;14326;50.794;6.060;2023-03-26T03:32:10;98569.81;;;8.60;100.00
26719;BME280;14326;50.794;6.060;2023-03-26T03:34:37;98559.19;;;8.60;100.00
26719;BME280;14326;50.794;6.060;2023-03-26T03:37:05;98560.09;;;8.61;100.00
26719;BME280;14326;50.794;6.060;2023-03-26T03:39:32;98553.03;;;8.61;100.00
26719;BME280;14326;50.794;6.060;2023-03-26T03:41:58;98552.16;;;8.62;100.00
26719;BME280;14326;50.794;6.060;2023-03-26T03:44:25;98550.38;;;8.65;100.00
26719;BME280;14326;50.794;6.060;2023-03-26T03:46:51;98549.50;;;8.64;100.00
26719;BME280;14326;50.794;6.060;2023-03-26T03:49:20;98544.22;;;8.66;100.00
26719;BME280;14326;50.794;6.060;2023-03-26T03:51:47;98540.66;;;8.62;100.00
26719;BME280;14326;50.794;6.060;2023-03-26T03:54:15;98535.34;;;8.62;100.00
26719;BME280;14326;50.794;6.060;2023-03-26T03:56:41;98537.13;;;8.63;100.00
26719;BME280;14326;50.794;6.060;2023-03-26T03:59:10;98532.72;;;8.63;100.00
26719;BME280;14326;50.794;6.060;2023-03-26T04:01:36;98529.19;;;8.63;100.00
26719;BME280;14326;50.794;6.060;2023-03-26T04:04:03;98519.44;;;8.68;100.00
26719;BME280;14326;50.794;6.060;2023-03-26T04:09:27;98514.16;;;8.70;100.00
26719;BME280;14326;50.794;6.060;2023-03-26T04:11:53;98507.06;;;8.76;100.00
26719;BME280;14326;50.794;6.060;2023-03-26T04:14:20;98502.63;;;8.78;100.00
26719;BME280;14326;50.794;6.060;2023-03-26T04:16:47;98498.22;;;8.67;100.00
26719;BME280;14326;50.794;6.060;2023-03-26T04:19:14;98503.53;;;8.62;100.00
26719;BME280;14326;50.794;6.060;2023-03-26T04:21:41;98488.56;;;8.59;100.00
26719;BME280;14326;50.794;6.060;2023-03-26T04:24:08;98501.81;;;8.46;100.00
26719;BME280;14326;50.794;6.060;2023-03-26T04:26:36;98492.09;;;8.36;100.00
26719;BME280;14326;50.794;6.060;2023-03-26T04:29:04;98493.00;;;8.36;100.00
26719;BME280;14326;50.794;6.060;2023-03-26T04:31:36;98481.50;;;8.34;100.00
26719;BME280;14326;50.794;6.060;2023-03-26T04:34:06;98478.84;;;8.33;100.00
26719;BME280;14326;50.794;6.060;2023-03-26T04:36:38;98465.56;;;8.30;100.00
26719;BME280;14326;50.794;6.060;2023-03-26T04:39:09;98459.41;;;8.31;100.00
26719;BME280;14326;50.794;6.060;2023-03-26T04:41:38;98447.06;;;8.33;100.00
26719;BME280;14326;50.794;6.060;2023-03-26T04:44:05;98447.03;;;8.27;100.00
26719;BME280;14326;50.794;6.060;2023-03-26T04:46:32;98441.75;;;8.23;100.00
26719;BME280;14326;50.794;6.060;2023-03-26T04:49:18;98444.38;;;8.20;100.00
26719;BME280;14326;50.794;6.060;2023-03-26T04:51:58;98439.97;;;8.22;100.00
26719;BME280;14326;50.794;6.060;2023-03-26T04:54:25;98439.09;;;8.20;100.00
26719;BME280;14326;50.794;6.060;2023-03-26T04:56:56;98430.25;;;8.20;100.00
26719;BME280;14326;50.794;6.060;2023-03-26T04:59:27;98418.78;;;8.16;100.00
26719;BME280;14326;50.794;6.060;2023-03-26T05:01:59;98409.94;;;8.14;100.00
26719;BME280;14326;50.794;6.060;2023-03-26T05:04:33;98405.53;;;8.07;100.00
26719;BME280;14326;50.794;6.060;2023-03-26T05:07:01;98401.16;;;8.00;100.00
26719;BME280;14326;50.794;6.060;2023-03-26T05:09:28;98403.81;;;8.00;100.00
26719;BME280;14326;50.794;6.060;2023-03-26T05:11:56;98396.75;;;8.01;100.00
26719;BME280;14326;50.794;6.060;2023-03-26T05:14:23;98392.31;;;8.01;100.00
26719;BME280;14326;50.794;6.060;2023-03-26T05:16:50;98389.66;;;8.03;100.00
26719;BME280;14326;50.794;6.060;2023-03-26T05:19:18;98387.91;;;8.05;100.00
26719;BME280;14326;50.794;6.060;2023-03-26T05:21:45;98387.03;;;8.06;100.00
26719;BME280;14326;50.794;6.060;2023-03-26T05:24:27;98380.84;;;8.07;100.00
26719;BME280;14326;50.794;6.060;2023-03-26T05:27:00;98375.56;;;8.07;100.00
26719;BME280;14326;50.794;6.060;2023-03-26T05:29:26;98366.69;;;8.08;100.00
26719;BME280;14326;50.794;6.060;2023-03-26T05:31:53;98372.88;;;8.08;100.00
26719;BME280;14326;50.794;6.060;2023-03-26T05:34:20;98352.56;;;8.07;100.00
26719;BME280;14326;50.794;6.060;2023-03-26T05:36:49;98349.94;;;8.09;100.00
26719;BME280;14326;50.794;6.060;2023-03-26T05:39:15;98356.13;;;8.09;100.00
26719;BME280;14326;50.794;6.060;2023-03-26T05:41:43;98346.41;;;8.08;100.00
26719;BME280;14326;50.794;6.060;2023-03-26T05:44:10;98336.69;;;8.07;100.00
26719;BME280;14326;50.794;6.060;2023-03-26T05:46:37;98335.81;;;8.08;100.00
26719;BME280;14326;50.794;6.060;2023-03-26T05:49:04;98333.19;;;8.07;100.00
26719;BME280;14326;50.794;6.060;2023-03-26T05:51:30;98334.94;;;8.08;100.00
26719;BME280;14326;50.794;6.060;2023-03-26T05:53:57;98329.63;;;8.08;100.00
26719;BME280;14326;50.794;6.060;2023-03-26T05:56:24;98322.56;;;8.08;100.00
26719;BME280;14326;50.794;6.060;2023-03-26T05:58:50;98320.81;;;8.07;100.00
26719;BME280;14326;50.794;6.060;2023-03-26T06:01:18;98319.94;;;8.05;100.00
26719;BME280;14326;50.794;6.060;2023-03-26T06:03:45;98314.63;;;8.08;100.00
26719;BME280;14326;50.794;6.060;2023-03-26T06:06:14;98317.28;;;8.08;100.00
26719;BME280;14326;50.794;6.060;2023-03-26T06:08:41;98321.72;;;8.06;100.00
26719;BME280;14326;50.794;6.060;2023-03-26T06:11:09;98312.88;;;8.04;100.00
26719;BME280;14326;50.794;6.060;2023-03-26T06:13:39;98315.53;;;8.03;100.00
26719;BME280;14326;50.794;6.060;2023-03-26T06:16:12;98304.91;;;8.09;100.00
26719;BME280;14326;50.794;6.060;2023-03-26T06:18:49;98302.25;;;8.07;100.00
26719;BME280;14326;50.794;6.060;2023-03-26T06:21:16;98303.19;;;8.06;100.00
26719;BME280;14326;50.794;6.060;2023-03-26T06:23:43;98298.75;;;8.11;100.00
26719;BME280;14326;50.794;6.060;2023-03-26T06:26:13;98296.97;;;8.07;100.00
26719;BME280;14326;50.794;6.060;2023-03-26T06:28:40;98297.88;;;8.12;100.00
26719;BME280;14326;50.794;6.060;2023-03-26T06:31:06;98296.97;;;8.10;100.00
26719;BME280;14326;50.794;6.060;2023-03-26T06:33:33;98290.81;;;8.05;100.00
26719;BME280;14326;50.794;6.060;2023-03-26T06:36:01;98290.84;;;8.01;100.00
26719;BME280;14326;50.794;6.060;2023-03-26T06:38:28;98296.16;;;7.95;100.00
26719;BME280;14326;50.794;6.060;2023-03-26T06:41:01;98282.03;;;7.94;100.00
26719;BME280;14326;50.794;6.060;2023-03-26T06:43:27;98282.91;;;7.87;100.00
26719;BME280;14326;50.794;6.060;2023-03-26T06:45:58;98274.97;;;7.86;100.00
26719;BME280;14326;50.794;6.060;2023-03-26T06:48:24;98272.31;;;7.86;100.00
26719;BME280;14326;50.794;6.060;2023-03-26T06:50:51;98269.69;;;7.89;100.00
26719;BME280;14326;50.794;6.060;2023-03-26T06:53:19;98263.50;;;7.85;100.00
26719;BME280;14326;50.794;6.060;2023-03-26T06:55:46;98267.03;;;7.84;100.00
26719;BME280;14326;50.794;6.060;2023-03-26T06:58:15;98262.59;;;7.85;100.00
26719;BME280;14326;50.794;6.060;2023-03-26T07:00:44;98260.84;;;7.79;100.00
26719;BME280;14326;50.794;6.060;2023-03-26T07:03:10;98257.34;;;7.80;100.00
26719;BME280;14326;50.794;6.060;2023-03-26T07:05:39;98254.69;;;7.83;100.00
26719;BME280;14326;50.794;6.060;2023-03-26T07:08:06;98246.75;;;7.80;100.00
26719;BME280;14326;50.794;6.060;2023-03-26T07:10:34;98249.38;;;7.78;100.00
26719;BME280;14326;50.794;6.060;2023-03-26T07:13:00;98249.38;;;7.78;100.00
26719;BME280;14326;50.794;6.060;2023-03-26T07:15:27;98239.72;;;7.77;100.00
26719;BME280;14326;50.794;6.060;2023-03-26T07:17:55;98238.81;;;7.80;100.00
26719;BME280;14326;50.794;6.060;2023-03-26T07:20:22;98234.38;;;7.79;100.00
26719;BME280;14326;50.794;6.060;2023-03-26T07:22:49;98227.34;;;7.75;100.00
26719;BME280;14326;50.794;6.060;2023-03-26T07:25:19;98234.41;;;7.76;100.00
26719;BME280;14326;50.794;6.060;2023-03-26T07:27:53;98229.13;;;7.67;100.00
26719;BME280;14326;50.794;6.060;2023-03-26T07:30:26;98220.31;;;7.65;100.00
26719;BME280;14326;50.794;6.060;2023-03-26T07:33:00;98218.53;;;7.61;100.00
26719;BME280;14326;50.794;6.060;2023-03-26T07:35:31;98210.63;;;7.64;100.00
26719;BME280;14326;50.794;6.060;2023-03-26T07:38:12;98204.44;;;7.65;100.00
26719;BME280;14326;50.794;6.060;2023-03-26T07:40:51;98206.19;;;7.61;100.00
26719;BME280;14326;50.794;6.060;2023-03-26T07:43:39;98205.34;;;7.52;100.00
26719;BME280;14326;50.794;6.060;2023-03-26T07:46:11;98193.03;;;7.48;100.00
26719;BME280;14326;50.794;6.060;2023-03-26T07:48:40;98200.94;;;7.31;100.00
26719;BME280;14326;50.794;6.060;2023-03-26T07:51:14;98191.25;;;7.25;100.00
26719;BME280;14326;50.794;6.060;2023-03-26T07:53:43;98189.50;;;7.27;100.00
26719;BME280;14326;50.794;6.060;2023-03-26T07:56:13;98188.63;;;7.22;100.00
26719;BME280;14326;50.794;6.060;2023-03-26T07:59:02;98180.72;;;7.24;100.00
26719;BME280;14326;50.794;6.060;2023-03-26T08:01:43;98176.31;;;7.17;100.00
26719;BME280;14326;50.794;6.060;2023-03-26T08:04:40;98160.44;;;7.09;100.00
26719;BME280;14326;50.794;6.060;2023-03-26T08:07:17;98159.56;;;7.16;100.00
26719;BME280;14326;50.794;6.060;2023-03-26T08:09:58;98148.97;;;7.21;100.00
26719;BME280;14326;50.794;6.060;2023-03-26T08:12:36;98149.84;;;7.15;100.00
26719;BME280;14326;50.794;6.060;2023-03-26T08:15:23;98141.94;;;7.15;100.00
26719;BME280;14326;50.794;6.060;2023-03-26T08:18:11;98146.31;;;7.15;100.00
26719;BME280;14326;50.794;6.060;2023-03-26T08:20:45;98139.31;;;7.12;100.00
26719;BME280;14326;50.794;6.060;2023-03-26T08:23:19;98138.38;;;7.13;100.00
26719;BME280;14326;50.794;6.060;2023-03-26T08:25:56;98129.59;;;7.11;100.00
26719;BME280;14326;50.794;6.060;2023-03-26T08:28:39;98127.84;;;7.18;100.00
26719;BME280;14326;50.794;6.060;2023-03-26T08:31:14;98132.22;;;7.20;100.00
26719;BME280;14326;50.794;6.060;2023-03-26T08:33:43;98128.72;;;7.15;100.00
26719;BME280;14326;50.794;6.060;2023-03-26T08:36:10;98124.31;;;7.11;100.00
26719;BME280;14326;50.794;6.060;2023-03-26T08:38:38;98121.66;;;7.17;100.00
26719;BME280;14326;50.794;6.060;2023-03-26T08:41:34;98120.78;;;7.15;100.00
26719;BME280;14326;50.794;6.060;2023-03-26T08:47:49;98111.06;;;7.29;100.00
26719;BME280;14326;50.794;6.060;2023-03-26T08:50:58;98109.31;;;7.30;100.00
26719;BME280;14326;50.794;6.060;2023-03-26T08:56:55;98096.06;;;7.36;100.00
26719;BME280;14326;50.794;6.060;2023-03-26T08:59:50;98100.44;;;7.37;100.00
26719;BME280;14326;50.794;6.060;2023-03-26T09:02:56;98096.06;;;7.28;100.00
26719;BME280;14326;50.794;6.060;2023-03-26T09:11:36;98083.69;;;7.36;100.00
26719;BME280;14326;50.794;6.060;2023-03-26T09:14:49;98082.81;;;7.37;100.00
26719;BME280;14326;50.794;6.060;2023-03-26T09:20:43;98080.16;;;7.44;100.00
26719;BME280;14326;50.794;6.060;2023-03-26T09:23:31;98073.97;;;7.45;100.00
26719;BME280;14326;50.794;6.060;2023-03-26T09:26:17;98067.81;;;7.47;100.00
26719;BME280;14326;50.794;6.060;2023-03-26T09:29:15;98069.50;;;7.62;100.00
26719;BME280;14326;50.794;6.060;2023-03-26T09:32:05;98060.66;;;7.67;100.00
26719;BME280;14326;50.794;6.060;2023-03-26T09:34:56;98067.69;;;7.73;100.00
26719;BME280;14326;50.794;6.060;2023-03-26T09:37:45;98055.34;;;7.75;100.00
26719;BME280;14326;50.794;6.060;2023-03-26T09:40:18;98054.41;;;7.85;100.00
26719;BME280;14326;50.794;6.060;2023-03-26T09:42:48;98052.66;;;7.78;100.00
26719;BME280;14326;50.794;6.060;2023-03-26T09:49:07;98041.25;;;7.71;100.00
26719;BME280;14326;50.794;6.060;2023-03-26T09:51:53;98055.34;;;7.75;100.00
26719;BME280;14326;50.794;6.060;2023-03-26T09:57:49;98049.09;;;7.87;100.00
26719;BME280;14326;50.794;6.060;2023-03-26T10:00:27;98042.03;;;7.89;100.00
26719;BME280;14326;50.794;6.060;2023-03-26T10:03:54;98046.41;;;7.91;100.00
26719;BME280;14326;50.794;6.060;2023-03-26T10:06:28;98045.50;;;8.00;100.00
26719;BME280;14326;50.794;6.060;2023-03-26T10:12:16;98081.63;;;8.08;100.00
26719;BME280;14326;50.794;6.060;2023-03-26T10:14:58;98066.63;;;8.07;100.00
26719;BME280;14326;50.794;6.060;2023-03-26T10:17:35;98061.31;;;8.12;100.00
26719;BME280;14326;50.794;6.060;2023-03-26T10:20:18;98056.78;;;8.31;100.00
26719;BME280;14326;50.794;6.060;2023-03-26T10:23:00;98050.59;;;8.36;100.00
26719;BME280;14326;50.794;6.060;2023-03-26T10:25:49;98047.91;;;8.41;100.00
26719;BME280;14326;50.794;6.060;2023-03-26T10:28:34;98044.31;;;8.48;100.00
26719;BME280;14326;50.794;6.060;2023-03-26T10:31:44;98043.34;;;8.56;100.00
26719;BME280;14326;50.794;6.060;2023-03-26T10:34:30;98046.88;;;8.55;100.00
26719;BME280;14326;50.794;6.060;2023-03-26T10:37:07;98043.34;;;8.58;100.00
26719;BME280;14326;50.794;6.060;2023-03-26T10:39:58;98038.00;;;8.62;100.00
26719;BME280;14326;50.794;6.060;2023-03-26T10:42:52;98039.72;;;8.67;100.00
26719;BME280;14326;50.794;6.060;2023-03-26T10:45:47;98036.16;;;8.69;100.00
26719;BME280;14326;50.794;6.060;2023-03-26T10:48:29;98045.94;;;8.61;100.00
26719;BME280;14326;50.794;6.060;2023-03-26T10:53:54;98045.94;;;8.64;100.00
26719;BME280;14326;50.794;6.060;2023-03-26T10:56:25;98049.44;;;8.68;100.00
26719;BME280;14326;50.794;6.060;2023-03-26T10:58:53;98046.75;;;8.71;100.00
26719;BME280;14326;50.794;6.060;2023-03-26T11:01:30;98045.84;;;8.73;100.00
26719;BME280;14326;50.794;6.060;2023-03-26T11:04:19;98052.91;;;8.77;100.00
26719;BME280;14326;50.794;6.060;2023-03-26T11:06:58;98052.00;;;8.77;100.00
26719;BME280;14326;50.794;6.060;2023-03-26T11:09:36;98052.91;;;8.77;100.00
26719;BME280;14326;50.794;6.060;2023-03-26T11:12:13;98052.94;;;8.71;100.00
26719;BME280;14326;50.794;6.060;2023-03-26T11:14:51;98053.78;;;8.73;100.00
26719;BME280;14326;50.794;6.060;2023-03-26T11:17:23;98054.63;;;8.81;100.00
26719;BME280;14326;50.794;6.060;2023-03-26T11:20:00;98050.09;;;8.92;100.00
26719;BME280;14326;50.794;6.060;2023-03-26T11:22:35;98055.38;;;8.94;100.00
26719;BME280;14326;50.794;6.060;2023-03-26T11:25:23;98057.03;;;9.06;100.00
26719;BME280;14326;50.794;6.060;2023-03-26T11:28:09;98056.94;;;9.13;100.00
26719;BME280;14326;50.794;6.060;2023-03-26T11:30:45;98066.59;;;9.20;100.00
26719;BME280;14326;50.794;6.060;2023-03-26T11:33:17;98062.09;;;9.27;100.00
26719;BME280;14326;50.794;6.060;2023-03-26T11:35:48;98062.94;;;9.32;100.00
26719;BME280;14326;50.794;6.060;2023-03-26T11:38:20;98062.91;;;9.35;100.00
26719;BME280;14326;50.794;6.060;2023-03-26T11:40:51;98060.25;;;9.35;100.00
26719;BME280;14326;50.794;6.060;2023-03-26T11:43:23;98058.44;;;9.37;100.00
26719;BME280;14326;50.794;6.060;2023-03-26T11:45:51;98070.81;;;9.39;100.00
26719;BME280;14326;50.794;6.060;2023-03-26T11:48:22;98071.75;;;9.34;100.00
26719;BME280;14326;50.794;6.060;2023-03-26T11:50:54;98068.22;;;9.35;100.00
26719;BME280;14326;50.794;6.060;2023-03-26T11:53:27;98068.28;;;9.26;100.00
26719;BME280;14326;50.794;6.060;2023-03-26T11:55:58;98073.59;;;9.29;100.00
26719;BME280;14326;50.794;6.060;2023-03-26T11:58:29;98076.31;;;9.20;100.00
26719;BME280;14326;50.794;6.060;2023-03-26T12:01:02;98074.56;;;9.20;100.00
26719;BME280;14326;50.794;6.060;2023-03-26T12:03:29;98080.78;;;9.15;100.00
26719;BME280;14326;50.794;6.060;2023-03-26T12:05:58;98072.84;;;9.15;100.00
26719;BME280;14326;50.794;6.060;2023-03-26T12:08:31;98083.50;;;9.12;100.00
26719;BME280;14326;50.794;6.060;2023-03-26T12:11:02;98084.31;;;9.17;100.00
26719;BME280;14326;50.794;6.060;2023-03-26T12:13:33;98086.09;;;9.16;100.00
26719;BME280;14326;50.794;6.060;2023-03-26T12:16:07;98088.75;;;9.16;100.00
26719;BME280;14326;50.794;6.060;2023-03-26T12:18:36;98086.91;;;9.21;100.00
26719;BME280;14326;50.794;6.060;2023-03-26T12:21:07;98087.75;;;9.28;100.00
26719;BME280;14326;50.794;6.060;2023-03-26T12:23:40;98096.53;;;9.31;100.00
26719;BME280;14326;50.794;6.060;2023-03-26T12:26:14;98092.94;;;9.37;100.00
26719;BME280;14326;50.794;6.060;2023-03-26T12:28:46;98095.63;;;9.35;100.00
26719;BME280;14326;50.794;6.060;2023-03-26T12:31:13;98097.34;;;9.38;100.00
26719;BME280;14326;50.794;6.060;2023-03-26T12:34:13;98104.47;;;9.36;100.00
26719;BME280;14326;50.794;6.060;2023-03-26T12:36:50;98105.31;;;9.41;100.00
26719;BME280;14326;50.794;6.060;2023-03-26T12:39:41;98107.13;;;9.36;100.00
26719;BME280;14326;50.794;6.060;2023-03-26T12:42:24;98108.84;;;9.40;100.00
26719;BME280;14326;50.794;6.060;2023-03-26T12:44:55;98114.22;;;9.34;100.00
26719;BME280;14326;50.794;6.060;2023-03-26T12:47:25;98110.75;;;9.27;100.00
26719;BME280;14326;50.794;6.060;2023-03-26T12:49:53;98105.50;;;9.20;100.00
26719;BME280;14326;50.794;6.060;2023-03-26T12:52:41;98107.31;;;9.18;100.00
26719;BME280;14326;50.794;6.060;2023-03-26T12:55:25;98112.63;;;9.18;100.00
26719;BME280;14326;50.794;6.060;2023-03-26T12:58:11;98116.19;;;9.12;100.00
26719;BME280;14326;50.794;6.060;2023-03-26T13:00:48;98115.38;;;9.06;100.00
26719;BME280;14326;50.794;6.060;2023-03-26T13:03:31;98112.75;;;9.02;100.00
26719;BME280;14326;50.794;6.060;2023-03-26T13:06:25;98123.34;;;9.02;100.00
26719;BME280;14326;50.794;6.060;2023-03-26T13:12:09;98127.72;;;9.08;100.00
26719;BME280;14326;50.794;6.060;2023-03-26T13:14:53;98118.03;;;9.06;100.00
26719;BME280;14326;50.794;6.060;2023-03-26T13:17:28;98121.47;;;9.14;100.00
26719;BME280;14326;50.794;6.060;2023-03-26T13:20:18;98129.44;;;9.14;100.00
26719;BME280;14326;50.794;6.060;2023-03-26T13:23:01;98127.66;;;9.17;100.00
26719;BME280;14326;50.794;6.060;2023-03-26T13:25:37;98127.66;;;9.16;100.00
26719;BME280;14326;50.794;6.060;2023-03-26T13:28:21;98132.94;;;9.17;100.00
26719;BME280;14326;50.794;6.060;2023-03-26T13:31:06;98131.13;;;9.21;100.00
26719;BME280;14326;50.794;6.060;2023-03-26T13:33:43;98125.00;;;9.19;100.00
26719;BME280;14326;50.794;6.060;2023-03-26T13:36:20;98129.38;;;9.20;100.00
26719;BME280;14326;50.794;6.060;2023-03-26T13:38:57;98126.72;;;9.20;100.00
26719;BME280;14326;50.794;6.060;2023-03-26T13:41:38;98126.78;;;9.15;100.00
26719;BME280;14326;50.794;6.060;2023-03-26T13:44:14;98124.13;;;9.15;100.00
26719;BME280;14326;50.794;6.060;2023-03-26T13:46:47;98136.50;;;9.13;100.00
26719;BME280;14326;50.794;6.060;2023-03-26T13:49:15;98127.75;;;9.07;100.00
26719;BME280;14326;50.794;6.060;2023-03-26T13:51:47;98129.53;;;9.03;100.00
26719;BME280;14326;50.794;6.060;2023-03-26T13:54:21;98124.22;;;9.01;100.00
26719;BME280;14326;50.794;6.060;2023-03-26T13:56:53;98136.66;;;8.98;100.00
26719;BME280;14326;50.794;6.060;2023-03-26T13:59:27;98141.97;;;8.96;100.00
26719;BME280;14326;50.794;6.060;2023-03-26T14:01:59;98145.50;;;8.95;100.00
26719;BME280;14326;50.794;6.060;2023-03-26T14:04:29;98141.06;;;8.96;100.00
26719;BME280;14326;50.794;6.060;2023-03-26T14:07:02;98149.06;;;8.93;100.00
26719;BME280;14326;50.794;6.060;2023-03-26T14:09:38;98150.00;;;8.87;100.00
26719;BME280;14326;50.794;6.060;2023-03-26T14:12:40;98151.78;;;8.84;100.00